Time;durP1;ratioP1;P1;durP2;ratioP2;P2;SDS_P1;SDS_P2;PMS_P1;PMS_P2;Temp;Humidity;BMP_temperature;BMP_pressure;BME280_temperature;BME280_humidity;BME280_pressure;Samples;Min_cycle;Max_cycle;Signal;HPM_P1;HPM_P2
2022/01/31 00:00:18;;;;;;;;;;;;;;;5.48;49.54;100420.81;5105541;28;19918;-68
2022/01/31 00:02:44;;;;;;;;;;;;;;;5.50;49.31;100411.75;5104924;28;19911;-68
2022/01/31 00:05:09;;;;;;;;;;;;;;;5.48;49.73;100408.34;5107756;28;20567;-68
2022/01/31 00:07:34;;;;;;;;;;;;;;;5.35;49.84;100403.94;5113367;28;19920;-68
2022/01/31 00:10:05;;;;;;;;;;;;;;;5.28;50.02;100394.63;5102942;28;19912;-69
2022/01/31 00:12:33;;;;;;;;;;;;;;;5.31;50.02;100400.63;5101652;28;20018;-69
2022/01/31 00:15:02;;;;;;;;;;;;;;;5.37;50.10;100386.94;5105546;28;19912;-69
2022/01/31 00:17:28;;;;;;;;;;;;;;;5.31;50.32;100397.97;5100058;28;19964;-69
2022/01/31 00:19:53;;;;;;;;;;;;;;;5.32;50.12;100402.31;5094287;28;19987;-69
2022/01/31 00:22:18;;;;;;;;;;;;;;;5.29;50.39;100394.53;5105815;28;19918;-67
2022/01/31 00:24:44;;;;;;;;;;;;;;;5.23;50.36;100400.28;5094056;28;19912;-67
2022/01/31 00:27:09;;;;;;;;;;;;;;;5.13;51.07;100387.66;5109802;28;20590;-69
2022/01/31 00:29:34;;;;;;;;;;;;;;;5.04;50.76;100397.09;5105097;28;20002;-68
2022/01/31 00:32:00;;;;;;;;;;;;;;;5.11;50.77;100395.75;5102522;28;19916;-68
2022/01/31 00:34:25;;;;;;;;;;;;;;;5.06;50.76;100384.53;5094284;28;19998;-68
2022/01/31 00:36:51;;;;;;;;;;;;;;;4.98;51.20;100394.81;5102707;28;20328;-68
2022/01/31 00:39:16;;;;;;;;;;;;;;;4.92;51.20;100386.38;5105191;28;19988;-68
2022/01/31 00:41:41;;;;;;;;;;;;;;;4.83;51.59;100377.19;5105527;28;19926;-68
2022/01/31 00:46:57;;;;;;;;;;;;;;;4.86;51.33;100382.31;5100426;28;19923;-68
2022/01/31 00:49:33;;;;;;;;;;;;;;;4.83;51.49;100379.00;5091845;28;19949;-68
2022/01/31 00:51:59;;;;;;;;;;;;;;;4.83;51.31;100384.31;5100696;28;19912;-68
2022/01/31 00:54:24;;;;;;;;;;;;;;;4.76;51.47;100386.50;5105407;28;19918;-69
2022/01/31 00:56:50;;;;;;;;;;;;;;;4.74;51.57;100401.66;5092415;28;19919;-68
2022/01/31 00:59:16;;;;;;;;;;;;;;;4.67;51.61;100389.72;5105456;28;19988;-66
2022/01/31 01:01:42;;;;;;;;;;;;;;;4.61;51.77;100388.31;5109329;28;19920;-66
2022/01/31 01:04:07;;;;;;;;;;;;;;;4.60;51.58;100381.31;5102536;28;19912;-68
2022/01/31 01:06:32;;;;;;;;;;;;;;;4.54;51.79;100381.69;5100497;28;19965;-69
2022/01/31 01:08:58;;;;;;;;;;;;;;;4.59;51.55;100376.09;5103212;28;19954;-69
2022/01/31 01:11:23;;;;;;;;;;;;;;;4.58;51.44;100374.38;5105099;28;20355;-69
2022/01/31 01:13:48;;;;;;;;;;;;;;;4.57;51.51;100384.16;5096812;28;19918;-69
2022/01/31 01:16:14;;;;;;;;;;;;;;;4.62;51.36;100378.56;5095344;28;19916;-68
2022/01/31 01:18:39;;;;;;;;;;;;;;;4.57;51.33;100388.59;5104853;28;19923;-67
2022/01/31 01:21:04;;;;;;;;;;;;;;;4.57;51.40;100378.84;5101988;28;19923;-67
2022/01/31 01:23:29;;;;;;;;;;;;;;;4.58;51.04;100387.66;5094518;28;19922;-67
2022/01/31 01:25:55;;;;;;;;;;;;;;;4.59;51.17;100378.75;5108140;28;19916;-67
2022/01/31 01:28:22;;;;;;;;;;;;;;;4.56;51.10;100386.91;5093306;28;19915;-66
2022/01/31 01:30:48;;;;;;;;;;;;;;;4.61;50.87;100388.31;5106009;28;19916;-66
2022/01/31 01:33:19;;;;;;;;;;;;;;;4.58;51.11;100399.13;5097632;28;19911;-66
2022/01/31 01:35:47;;;;;;;;;;;;;;;4.55;51.10;100390.50;5099066;28;19947;-65
2022/01/31 01:38:15;;;;;;;;;;;;;;;4.55;50.96;100387.84;5101659;28;20319;-66
2022/01/31 01:40:41;;;;;;;;;;;;;;;4.52;51.13;100383.56;5092926;28;19942;-66
2022/01/31 01:43:07;;;;;;;;;;;;;;;4.58;50.88;100369.06;5094172;28;20356;-67
2022/01/31 01:45:32;;;;;;;;;;;;;;;4.68;50.64;100378.16;5103757;28;19919;-66
2022/01/31 01:47:58;;;;;;;;;;;;;;;4.68;50.54;100373.69;5111212;28;19916;-66
2022/01/31 01:50:23;;;;;;;;;;;;;;;4.59;50.64;100365.47;5090163;28;19919;-67
2022/01/31 01:52:50;;;;;;;;;;;;;;;4.56;50.75;100368.31;5094660;28;19950;-66
2022/01/31 01:55:15;;;;;;;;;;;;;;;4.59;50.34;100354.84;5095555;28;20371;-66
2022/01/31 01:57:41;;;;;;;;;;;;;;;4.42;50.72;100365.66;5098162;28;19929;-66
2022/01/31 02:00:08;;;;;;;;;;;;;;;4.51;50.64;100351.78;5091443;28;19922;-66
2022/01/31 02:02:34;;;;;;;;;;;;;;;4.57;50.25;100348.75;5095954;28;19919;-66
2022/01/31 02:04:59;;;;;;;;;;;;;;;4.51;50.43;100341.16;5103042;28;19980;-66
2022/01/31 02:07:25;;;;;;;;;;;;;;;4.52;50.23;100342.91;5089039;28;19916;-66
2022/01/31 02:09:54;;;;;;;;;;;;;;;4.46;50.35;100340.63;5089855;28;20277;-66
2022/01/31 02:12:20;;;;;;;;;;;;;;;4.51;50.19;100326.09;5107696;28;19950;-66
2022/01/31 02:14:45;;;;;;;;;;;;;;;4.55;49.90;100311.66;5098426;28;19947;-68
2022/01/31 02:17:11;;;;;;;;;;;;;;;4.47;50.06;100316.63;5094001;28;20388;-68
2022/01/31 02:19:37;;;;;;;;;;;;;;;4.46;50.12;100332.66;5103836;28;19915;-69
2022/01/31 02:22:03;;;;;;;;;;;;;;;4.37;50.30;100334.09;5103525;28;19920;-69
2022/01/31 02:24:30;;;;;;;;;;;;;;;4.47;50.04;100327.25;5108891;28;19956;-66
2022/01/31 02:26:55;;;;;;;;;;;;;;;4.49;49.96;100333.28;5093092;28;19926;-68
2022/01/31 02:29:21;;;;;;;;;;;;;;;4.53;49.56;100326.00;5109893;28;19912;-68
2022/01/31 02:31:47;;;;;;;;;;;;;;;4.57;49.50;100327.50;5105313;28;19965;-68
2022/01/31 02:34:13;;;;;;;;;;;;;;;4.59;49.37;100325.63;5103973;28;19926;-66
2022/01/31 02:36:39;;;;;;;;;;;;;;;4.61;49.13;100321.91;5104368;27;19919;-67
2022/01/31 02:39:04;;;;;;;;;;;;;;;4.54;49.31;100317.06;5087269;28;20379;-66
2022/01/31 02:41:30;;;;;;;;;;;;;;;4.47;49.34;100323.72;5105224;28;19926;-66
2022/01/31 02:43:56;;;;;;;;;;;;;;;4.46;49.34;100322.03;5102345;28;19911;-66
2022/01/31 02:46:24;;;;;;;;;;;;;;;4.35;49.54;100303.25;5107046;28;19919;-65
2022/01/31 02:48:51;;;;;;;;;;;;;;;4.49;49.60;100333.28;5101842;28;19912;-66
2022/01/31 02:51:21;;;;;;;;;;;;;;;4.54;49.39;100330.34;5103967;28;19912;-66
2022/01/31 02:53:46;;;;;;;;;;;;;;;4.50;49.31;100331.50;5091367;28;19911;-66
2022/01/31 02:56:12;;;;;;;;;;;;;;;4.44;49.81;100339.84;5102165;28;20391;-66
2022/01/31 02:58:37;;;;;;;;;;;;;;;4.40;50.10;100341.88;5093482;28;19999;-66
2022/01/31 03:01:03;;;;;;;;;;;;;;;4.49;49.56;100343.09;5091617;28;19916;-66
2022/01/31 03:03:28;;;;;;;;;;;;;;;4.62;49.19;100336.88;5089675;28;19920;-67
2022/01/31 03:05:53;;;;;;;;;;;;;;;4.75;48.34;100331.66;5093327;28;19942;-66
2022/01/31 03:08:19;;;;;;;;;;;;;;;4.73;48.54;100330.91;5089869;28;19919;-67
2022/01/31 03:10:45;;;;;;;;;;;;;;;4.69;48.64;100313.47;5096858;28;19954;-67
2022/01/31 03:13:10;;;;;;;;;;;;;;;4.61;49.10;100305.09;5102651;28;20010;-66
2022/01/31 03:15:35;;;;;;;;;;;;;;;4.71;48.59;100293.81;5103448;28;19916;-66
2022/01/31 03:18:01;;;;;;;;;;;;;;;4.69;48.62;100284.25;5105190;28;19919;-66
2022/01/31 03:20:26;;;;;;;;;;;;;;;4.65;48.52;100277.44;5086935;28;20497;-67
2022/01/31 03:22:52;;;;;;;;;;;;;;;4.63;48.75;100274.00;5091782;28;19912;-66
2022/01/31 03:25:18;;;;;;;;;;;;;;;4.60;48.82;100261.78;5091211;28;19916;-67
2022/01/31 03:27:45;;;;;;;;;;;;;;;4.54;49.21;100256.00;5089421;28;19969;-66
2022/01/31 03:30:12;;;;;;;;;;;;;;;4.43;49.31;100258.50;5089012;28;20000;-66
2022/01/31 03:32:37;;;;;;;;;;;;;;;4.42;49.39;100252.31;5094416;28;19915;-66
2022/01/31 03:35:03;;;;;;;;;;;;;;;4.34;49.87;100244.00;5095941;28;20340;-66
2022/01/31 03:37:29;;;;;;;;;;;;;;;4.27;49.99;100253.31;5092097;28;19955;-66
2022/01/31 03:39:54;;;;;;;;;;;;;;;4.32;49.92;100248.56;5089022;28;19954;-65
2022/01/31 03:42:20;;;;;;;;;;;;;;;4.31;49.88;100257.47;5103548;28;19937;-66
2022/01/31 03:44:46;;;;;;;;;;;;;;;4.18;50.31;100261.84;5089175;28;19912;-67
2022/01/31 03:47:12;;;;;;;;;;;;;;;4.36;49.63;100260.69;5108176;28;19924;-67
2022/01/31 03:49:37;;;;;;;;;;;;;;;4.29;50.09;100262.03;5103827;28;20433;-67
2022/01/31 03:52:03;;;;;;;;;;;;;;;4.39;49.87;100262.31;5103727;28;20388;-65
2022/01/31 03:54:28;;;;;;;;;;;;;;;4.32;50.00;100264.47;5108967;28;19960;-66
2022/01/31 03:56:53;;;;;;;;;;;;;;;4.28;49.95;100252.38;5108885;28;19930;-65
2022/01/31 03:59:20;;;;;;;;;;;;;;;4.21;50.16;100251.03;5094344;28;20066;-67
2022/01/31 04:01:45;;;;;;;;;;;;;;;4.13;50.36;100247.19;5091470;28;19916;-66
2022/01/31 04:04:10;;;;;;;;;;;;;;;4.14;50.23;100254.19;5087541;28;19912;-65
2022/01/31 04:06:39;;;;;;;;;;;;;;;4.05;50.29;100245.00;5099847;28;19922;-66
2022/01/31 04:09:05;;;;;;;;;;;;;;;3.97;50.53;100246.44;5103060;28;20384;-65
2022/01/31 04:11:30;;;;;;;;;;;;;;;4.01;50.79;100246.13;5098277;28;19911;-65
2022/01/31 04:13:56;;;;;;;;;;;;;;;4.06;50.39;100259.09;5090927;28;19912;-68
2022/01/31 04:16:21;;;;;;;;;;;;;;;4.01;50.34;100254.09;5100480;28;19968;-69
2022/01/31 04:18:46;;;;;;;;;;;;;;;4.13;50.19;100245.34;5097856;28;20024;-69
2022/01/31 04:21:13;;;;;;;;;;;;;;;4.18;49.92;100258.34;5090677;28;20032;-68
2022/01/31 04:23:38;;;;;;;;;;;;;;;4.18;49.89;100250.38;5098865;28;19955;-69
2022/01/31 04:26:11;;;;;;;;;;;;;;;4.18;49.85;100253.91;5101788;28;19943;-69
2022/01/31 04:29:03;;;;;;;;;;;;;;;4.26;49.66;100250.75;5102698;28;19998;-69
2022/01/31 04:31:37;;;;;;;;;;;;;;;4.28;49.82;100251.50;5100526;28;19912;-68
2022/01/31 04:34:03;;;;;;;;;;;;;;;4.13;50.28;100231.25;5093934;28;19911;-68
2022/01/31 04:36:28;;;;;;;;;;;;;;;4.09;50.55;100224.41;5103867;28;20322;-68
2022/01/31 04:38:53;;;;;;;;;;;;;;;4.20;50.35;100220.13;5100897;28;19948;-68
2022/01/31 04:41:20;;;;;;;;;;;;;;;4.25;50.06;100219.84;5103086;28;19958;-68
2022/01/31 04:43:48;;;;;;;;;;;;;;;4.17;50.70;100224.78;5098374;28;19920;-68
2022/01/31 04:46:13;;;;;;;;;;;;;;;4.28;49.97;100214.34;5092412;28;19916;-69
2022/01/31 04:48:38;;;;;;;;;;;;;;;4.25;50.26;100211.88;5101870;28;20456;-69
2022/01/31 04:51:04;;;;;;;;;;;;;;;4.28;50.13;100219.66;5104570;28;19965;-68
2022/01/31 04:53:29;;;;;;;;;;;;;;;4.31;50.04;100200.88;5102372;28;19916;-68
2022/01/31 04:55:55;;;;;;;;;;;;;;;4.32;49.78;100197.28;5104855;28;19924;-69
2022/01/31 04:58:22;;;;;;;;;;;;;;;4.26;50.04;100185.22;5090751;28;19923;-69
2022/01/31 05:00:48;;;;;;;;;;;;;;;4.25;49.91;100169.41;5105769;28;19916;-68
2022/01/31 05:03:16;;;;;;;;;;;;;;;4.20;50.11;100166.22;5102116;28;20601;-68
2022/01/31 05:05:42;;;;;;;;;;;;;;;4.14;49.87;100169.25;5103604;28;19912;-70
2022/01/31 05:08:08;;;;;;;;;;;;;;;4.23;49.72;100179.28;5097798;28;19915;-69
2022/01/31 05:10:34;;;;;;;;;;;;;;;4.30;49.40;100173.50;5108074;28;19915;-67
2022/01/31 05:13:00;;;;;;;;;;;;;;;4.30;49.46;100186.75;5100174;28;19912;-66
2022/01/31 05:15:25;;;;;;;;;;;;;;;4.27;49.58;100194.06;5091795;28;19960;-66
2022/01/31 05:17:50;;;;;;;;;;;;;;;4.32;49.46;100189.31;5097631;28;20099;-66
2022/01/31 05:20:16;;;;;;;;;;;;;;;4.36;49.51;100194.31;5111519;28;20379;-66
2022/01/31 05:22:41;;;;;;;;;;;;;;;4.36;49.40;100198.78;5099920;28;19916;-66
2022/01/31 05:25:06;;;;;;;;;;;;;;;4.43;49.35;100198.31;5095730;28;19912;-66
2022/01/31 05:27:32;;;;;;;;;;;;;;;4.35;49.49;100197.94;5097989;28;20459;-68
2022/01/31 05:29:57;;;;;;;;;;;;;;;4.32;49.58;100192.81;5103433;28;20007;-65
2022/01/31 05:32:22;;;;;;;;;;;;;;;4.35;49.36;100191.75;5104241;28;19919;-66
2022/01/31 05:34:48;;;;;;;;;;;;;;;4.28;49.75;100191.31;5094140;28;19971;-65
2022/01/31 05:37:13;;;;;;;;;;;;;;;4.29;49.73;100197.47;5103051;28;20366;-65
2022/01/31 05:39:39;;;;;;;;;;;;;;;4.35;49.51;100189.97;5105298;28;19912;-65
2022/01/31 05:42:05;;;;;;;;;;;;;;;4.40;49.64;100193.19;5103170;28;20314;-66
2022/01/31 05:44:30;;;;;;;;;;;;;;;4.40;49.53;100194.97;5093096;28;19919;-66
2022/01/31 05:46:56;;;;;;;;;;;;;;;4.39;49.57;100177.34;5097939;28;20010;-66
2022/01/31 05:49:22;;;;;;;;;;;;;;;4.32;49.92;100160.13;5089630;28;20471;-66
2022/01/31 05:52:02;;;;;;;;;;;;;;;4.51;49.33;100164.13;5090320;28;19994;-67
2022/01/31 05:54:31;;;;;;;;;;;;;;;4.40;49.99;100163.97;5089198;28;19916;-67
2022/01/31 05:56:56;;;;;;;;;;;;;;;4.23;50.09;100160.72;5095503;28;20730;-65
2022/01/31 05:59:22;;;;;;;;;;;;;;;4.19;50.50;100172.44;5098547;28;19920;-67
2022/01/31 06:01:47;;;;;;;;;;;;;;;4.19;50.67;100172.44;5097159;28;19920;-66
2022/01/31 06:04:13;;;;;;;;;;;;;;;4.13;50.76;100178.19;5096921;28;19930;-66
2022/01/31 06:06:38;;;;;;;;;;;;;;;4.05;50.88;100183.97;5092312;28;20002;-66
2022/01/31 06:09:04;;;;;;;;;;;;;;;3.99;51.08;100164.91;5089160;28;19916;-66
2022/01/31 06:11:31;;;;;;;;;;;;;;;3.95;51.37;100164.28;5104266;28;19915;-67
2022/01/31 06:13:57;;;;;;;;;;;;;;;3.93;51.36;100155.56;5102500;28;19912;-67
2022/01/31 06:16:22;;;;;;;;;;;;;;;4.03;50.76;100158.50;5088592;28;20406;-68
2022/01/31 06:18:47;;;;;;;;;;;;;;;3.95;51.14;100155.44;5089572;28;19920;-67
2022/01/31 06:21:13;;;;;;;;;;;;;;;3.91;51.25;100154.81;5095293;28;20626;-67
2022/01/31 06:23:39;;;;;;;;;;;;;;;3.94;51.39;100159.06;5092561;28;19973;-67
2022/01/31 06:26:04;;;;;;;;;;;;;;;3.90;51.29;100146.94;5094681;28;20315;-67
2022/01/31 06:28:29;;;;;;;;;;;;;;;3.87;51.55;100139.19;5099265;28;19920;-65
2022/01/31 06:30:55;;;;;;;;;;;;;;;3.92;51.30;100137.94;5098231;28;20277;-65
2022/01/31 06:33:20;;;;;;;;;;;;;;;3.88;51.66;100139.09;5096150;28;20041;-66
2022/01/31 06:35:47;;;;;;;;;;;;;;;3.85;51.52;100126.03;5092039;28;19944;-66
2022/01/31 06:38:12;;;;;;;;;;;;;;;3.86;51.83;100118.91;5089722;28;20006;-66
2022/01/31 06:40:38;;;;;;;;;;;;;;;4.00;51.50;100127.66;5099315;28;20482;-66
2022/01/31 06:43:03;;;;;;;;;;;;;;;4.00;50.85;100134.81;5091123;28;19955;-66
2022/01/31 06:45:28;;;;;;;;;;;;;;;3.96;51.08;100141.22;5089354;28;19931;-67
2022/01/31 06:47:53;;;;;;;;;;;;;;;3.93;51.50;100144.06;5090845;28;19923;-66
2022/01/31 06:50:19;;;;;;;;;;;;;;;3.88;51.80;100151.50;5096848;28;19912;-66
2022/01/31 06:52:44;;;;;;;;;;;;;;;3.85;52.09;100147.25;5092224;28;19962;-66
2022/01/31 06:55:19;;;;;;;;;;;;;;;3.83;52.15;100149.13;5104313;28;20334;-66
2022/01/31 06:57:44;;;;;;;;;;;;;;;3.83;52.43;100142.97;5097774;28;20352;-67
2022/01/31 07:00:09;;;;;;;;;;;;;;;3.84;52.39;100145.50;5094197;28;19961;-67
2022/01/31 07:02:35;;;;;;;;;;;;;;;3.89;52.20;100138.13;5091684;28;19912;-66
2022/01/31 07:05:00;;;;;;;;;;;;;;;3.95;52.02;100136.88;5098007;28;20512;-66
2022/01/31 07:07:26;;;;;;;;;;;;;;;3.95;52.05;100134.22;5093085;28;20003;-66
2022/01/31 07:09:51;;;;;;;;;;;;;;;3.96;51.78;100126.19;5105852;28;19927;-68
2022/01/31 07:12:17;;;;;;;;;;;;;;;3.94;52.04;100121.94;5091999;28;19984;-67
2022/01/31 07:14:43;;;;;;;;;;;;;;;3.94;52.18;100117.44;5089280;28;19916;-66
2022/01/31 07:17:08;;;;;;;;;;;;;;;3.89;52.60;100108.94;5088286;28;19916;-66
2022/01/31 07:19:36;;;;;;;;;;;;;;;3.93;52.34;100123.72;5094902;28;19937;-67
2022/01/31 07:22:04;;;;;;;;;;;;;;;4.00;52.37;100125.03;5087861;28;19969;-65
2022/01/31 07:27:01;;;;;;;;;;;;;;;3.99;52.92;100114.50;5103052;28;19920;-66
2022/01/31 07:29:28;;;;;;;;;;;;;;;3.97;53.16;100116.44;5104486;28;20762;-66
2022/01/31 07:31:53;;;;;;;;;;;;;;;3.95;53.65;100097.09;5095217;28;20380;-66
2022/01/31 07:34:20;;;;;;;;;;;;;;;3.97;53.88;100100.50;5095679;28;19911;-66
2022/01/31 07:36:46;;;;;;;;;;;;;;;3.91;54.32;100091.16;5096849;28;19974;-66
2022/01/31 07:39:11;;;;;;;;;;;;;;;3.93;54.40;100091.88;5091223;28;20001;-66
2022/01/31 07:41:37;;;;;;;;;;;;;;;3.98;54.59;100073.03;5106711;28;20316;-66
2022/01/31 07:44:02;;;;;;;;;;;;;;;3.98;54.64;100068.56;5101732;28;19916;-66
2022/01/31 07:46:28;;;;;;;;;;;;;;;4.02;54.90;100053.28;5090842;28;19920;-67
2022/01/31 07:48:54;;;;;;;;;;;;;;;3.98;55.21;100046.50;5109380;28;20333;-64
2022/01/31 07:51:20;;;;;;;;;;;;;;;4.01;55.24;100033.03;5095552;28;20007;-65
2022/01/31 07:53:45;;;;;;;;;;;;;;;4.10;55.32;100037.72;5099618;28;19912;-66
2022/01/31 07:56:11;;;;;;;;;;;;;;;4.10;55.21;100021.81;5092537;28;20384;-66
2022/01/31 07:58:37;;;;;;;;;;;;;;;4.17;55.49;100017.78;5100857;28;19951;-66
2022/01/31 08:01:04;;;;;;;;;;;;;;;4.17;55.39;100012.50;5095855;28;19961;-65
2022/01/31 08:03:29;;;;;;;;;;;;;;;4.16;55.54;100006.31;5091964;28;19915;-68
2022/01/31 08:05:54;;;;;;;;;;;;;;;4.13;55.73;99998.56;5094568;28;20379;-69
2022/01/31 08:08:20;;;;;;;;;;;;;;;4.13;55.93;99995.06;5108096;28;19916;-69
2022/01/31 08:10:45;;;;;;;;;;;;;;;4.18;55.99;99998.25;5107822;28;19912;-66
2022/01/31 08:13:10;;;;;;;;;;;;;;;4.19;56.19;99999.94;5093365;28;19937;-66
2022/01/31 08:15:47;;;;;;;;;;;;;;;4.21;56.26;99992.75;5105402;28;20589;-66
2022/01/31 08:18:13;;;;;;;;;;;;;;;4.24;56.45;99974.81;5100522;28;19920;-66
2022/01/31 08:20:38;;;;;;;;;;;;;;;4.38;55.82;99981.84;5106062;28;19912;-66
2022/01/31 08:23:04;;;;;;;;;;;;;;;4.57;55.43;99987.59;5091020;28;20372;-66
2022/01/31 08:25:35;;;;;;;;;;;;;;;4.72;54.99;99992.72;5106460;28;19916;-66
2022/01/31 08:28:06;;;;;;;;;;;;;;;4.77;54.80;99981.75;5090815;28;19917;-66
2022/01/31 08:30:38;;;;;;;;;;;;;;;5.02;53.92;99981.75;5096447;28;19919;-66
2022/01/31 08:33:13;;;;;;;;;;;;;;;5.17;53.61;99970.03;5093673;28;19934;-66
2022/01/31 08:35:48;;;;;;;;;;;;;;;5.18;53.55;99974.38;5102862;28;20037;-66
2022/01/31 08:38:13;;;;;;;;;;;;;;;5.24;53.54;99978.41;5100119;28;19981;-66
2022/01/31 08:40:39;;;;;;;;;;;;;;;5.17;53.53;99974.50;5093685;28;19969;-65
2022/01/31 08:43:05;;;;;;;;;;;;;;;5.24;53.47;99970.44;5097383;28;19912;-66
2022/01/31 08:45:30;;;;;;;;;;;;;;;5.41;52.68;99972.72;5091922;28;19916;-66
2022/01/31 08:47:55;;;;;;;;;;;;;;;5.35;53.22;99973.19;5094056;28;20348;-66
2022/01/31 08:50:21;;;;;;;;;;;;;;;5.36;53.09;99980.19;5095400;28;19912;-66
2022/01/31 08:52:46;;;;;;;;;;;;;;;5.29;53.12;99970.97;5092317;28;20436;-65
2022/01/31 08:55:12;;;;;;;;;;;;;;;5.44;52.92;99977.81;5110198;28;20366;-65
2022/01/31 08:57:37;;;;;;;;;;;;;;;5.43;52.53;99976.13;5098369;28;19974;-64
2022/01/31 09:00:06;;;;;;;;;;;;;;;5.40;52.78;99977.22;5090405;28;19916;-66
2022/01/31 09:02:40;;;;;;;;;;;;;;;5.35;53.01;99966.03;5094889;28;20000;-65
2022/01/31 09:05:06;;;;;;;;;;;;;;;5.35;52.91;99949.25;5088637;28;19920;-65
2022/01/31 09:07:31;;;;;;;;;;;;;;;5.38;53.07;99952.53;5089609;28;19923;-66
2022/01/31 09:10:00;;;;;;;;;;;;;;;5.46;53.25;99939.53;5091744;28;19925;-66
2022/01/31 09:12:29;;;;;;;;;;;;;;;5.58;52.44;99927.97;5101150;28;19923;-66
2022/01/31 09:14:54;;;;;;;;;;;;;;;5.55;52.48;99925.53;5095342;28;20000;-65
2022/01/31 09:17:20;;;;;;;;;;;;;;;5.70;51.47;99932.41;5089670;28;19981;-65
2022/01/31 09:19:45;;;;;;;;;;;;;;;5.76;51.63;99929.28;5091461;28;19926;-67
2022/01/31 09:22:11;;;;;;;;;;;;;;;5.73;51.28;99918.03;5092420;28;19915;-66
2022/01/31 09:24:39;;;;;;;;;;;;;;;5.78;51.52;99924.72;5097959;28;20288;-66
2022/01/31 09:27:05;;;;;;;;;;;;;;;5.70;51.91;99921.75;5101072;28;19947;-65
2022/01/31 09:29:30;;;;;;;;;;;;;;;5.66;52.10;99917.66;5095217;28;20012;-66
2022/01/31 09:31:56;;;;;;;;;;;;;;;5.65;52.37;99915.09;5093692;28;19947;-66
2022/01/31 09:34:23;;;;;;;;;;;;;;;5.63;52.09;99923.19;5099845;28;19912;-66
2022/01/31 09:36:48;;;;;;;;;;;;;;;5.64;52.11;99916.91;5092339;28;19923;-66
2022/01/31 09:39:13;;;;;;;;;;;;;;;5.61;52.21;99909.13;5099341;28;20279;-66
2022/01/31 09:41:42;;;;;;;;;;;;;;;5.82;51.68;99907.59;5088768;28;19912;-66
2022/01/31 09:44:23;;;;;;;;;;;;;;;5.77;51.77;99916.84;5092158;28;19919;-65
2022/01/31 09:47:04;;;;;;;;;;;;;;;5.87;51.80;99907.25;5096227;28;19974;-65
2022/01/31 09:49:30;;;;;;;;;;;;;;;5.92;51.16;99907.72;5095534;28;19919;-65
2022/01/31 09:51:55;;;;;;;;;;;;;;;5.86;51.46;99911.72;5091268;28;19911;-65
2022/01/31 09:54:22;;;;;;;;;;;;;;;6.09;51.26;99905.50;5090682;28;19966;-65
2022/01/31 09:56:48;;;;;;;;;;;;;;;6.00;50.68;99900.88;5101341;28;20006;-68
2022/01/31 09:59:14;;;;;;;;;;;;;;;5.95;51.14;99886.22;5099626;28;19919;-68
2022/01/31 10:01:41;;;;;;;;;;;;;;;5.94;51.42;99884.53;5102869;28;20420;-69
2022/01/31 10:04:17;;;;;;;;;;;;;;;5.94;51.37;99872.03;5099177;28;19916;-68
2022/01/31 10:06:43;;;;;;;;;;;;;;;5.95;51.11;99857.81;5099114;28;20304;-65
2022/01/31 10:09:14;;;;;;;;;;;;;;;5.99;51.11;99843.28;5089207;28;20010;-65
2022/01/31 10:11:49;;;;;;;;;;;;;;;6.03;50.87;99843.91;5095628;28;19911;-66
2022/01/31 10:17:02;;;;;;;;;;;;;;;6.10;50.46;99829.16;5092470;28;19919;-67
2022/01/31 10:19:28;;;;;;;;;;;;;;;6.06;50.42;99823.22;5089839;28;19924;-66
2022/01/31 10:21:55;;;;;;;;;;;;;;;6.05;50.85;99826.84;5099179;28;19915;-66
2022/01/31 10:24:20;;;;;;;;;;;;;;;6.02;50.65;99813.78;5092264;28;20506;-66
2022/01/31 10:26:46;;;;;;;;;;;;;;;6.08;50.89;99809.78;5103304;28;20010;-67
2022/01/31 10:29:12;;;;;;;;;;;;;;;6.09;51.11;99809.66;5100224;28;19916;-66
2022/01/31 10:31:38;;;;;;;;;;;;;;;6.12;50.63;99809.44;5092653;28;20089;-69
2022/01/31 10:34:13;;;;;;;;;;;;;;;6.15;50.41;99811.84;5099880;28;19919;-69
2022/01/31 10:36:39;;;;;;;;;;;;;;;6.11;50.86;99794.44;5090509;28;19919;-70
2022/01/31 10:43:11;;;;;;;;;;;;;;;6.13;50.77;99796.97;5108282;28;19920;-69
2022/01/31 10:45:25;;;;;;;;;;;;;;;6.14;51.44;99775.56;5100479;28;19976;-69
2022/01/31 10:53:08;;;;;;;;;;;;;;;6.11;51.01;99751.84;5099872;28;19980;-69
2022/01/31 10:55:33;;;;;;;;;;;;;;;6.12;51.32;99742.88;5101861;28;19948;-69
2022/01/31 10:58:07;;;;;;;;;;;;;;;6.15;51.14;99747.09;5100996;28;19924;-69
2022/01/31 11:00:34;;;;;;;;;;;;;;;6.17;51.52;99751.38;5091881;28;19945;-69
2022/01/31 11:03:19;;;;;;;;;;;;;;;6.22;51.18;99748.31;5100584;28;20299;-69
2022/01/31 11:05:48;;;;;;;;;;;;;;;6.33;50.99;99743.00;5108074;28;19912;-66
2022/01/31 11:08:13;;;;;;;;;;;;;;;6.35;50.67;99738.38;5102608;28;20356;-66
2022/01/31 11:10:39;;;;;;;;;;;;;;;6.37;50.92;99732.00;5100114;28;19950;-66
2022/01/31 11:13:05;;;;;;;;;;;;;;;6.43;50.24;99720.84;5088588;28;19912;-67
2022/01/31 11:15:30;;;;;;;;;;;;;;;6.51;50.48;99720.19;5090411;28;19947;-67
2022/01/31 11:17:58;;;;;;;;;;;;;;;6.50;50.88;99716.72;5090157;28;20390;-66
2022/01/31 11:20:24;;;;;;;;;;;;;;;6.55;50.17;99711.03;5097019;28;19924;-66
2022/01/31 11:22:56;;;;;;;;;;;;;;;6.56;49.96;99704.72;5096693;28;19957;-66
2022/01/31 11:25:26;;;;;;;;;;;;;;;6.57;50.51;99709.06;5097759;28;19965;-70
2022/01/31 11:27:52;;;;;;;;;;;;;;;6.59;50.28;99697.31;5103144;28;19916;-70
2022/01/31 11:30:18;;;;;;;;;;;;;;;6.65;49.98;99704.78;5093153;28;19961;-65
2022/01/31 11:32:45;;;;;;;;;;;;;;;6.64;49.28;99700.44;5092030;28;20852;-66
2022/01/31 11:35:11;;;;;;;;;;;;;;;6.60;49.82;99699.00;5093636;28;19912;-67
2022/01/31 11:37:37;;;;;;;;;;;;;;;6.58;49.64;99694.78;5095939;28;20373;-66
2022/01/31 11:40:08;;;;;;;;;;;;;;;6.60;49.81;99693.69;5094493;28;20002;-67
2022/01/31 11:42:34;;;;;;;;;;;;;;;6.57;49.06;99674.44;5094284;28;19922;-66
2022/01/31 11:45:02;;;;;;;;;;;;;;;6.60;49.28;99666.19;5113809;28;20300;-66
2022/01/31 11:47:29;;;;;;;;;;;;;;;6.58;49.55;99663.66;5097361;28;19923;-66
2022/01/31 11:49:58;;;;;;;;;;;;;;;6.57;49.12;99661.09;5097799;28;19922;-66
2022/01/31 11:52:24;;;;;;;;;;;;;;;6.53;49.71;99659.66;5093508;28;19912;-66
2022/01/31 11:54:57;;;;;;;;;;;;;;;6.56;49.55;99659.44;5095614;28;19919;-66
2022/01/31 11:57:23;;;;;;;;;;;;;;;6.56;49.38;99652.28;5094180;28;19962;-65
2022/01/31 11:59:52;;;;;;;;;;;;;;;6.54;49.23;99643.56;5104201;28;19951;-65
2022/01/31 12:02:19;;;;;;;;;;;;;;;6.56;49.14;99660.28;5100256;28;19915;-67
2022/01/31 12:04:44;;;;;;;;;;;;;;;6.54;49.67;99643.56;5094531;28;19977;-67
2022/01/31 12:07:45;;;;;;;;;;;;;;;6.55;49.50;99623.13;5099038;28;19916;-67
2022/01/31 12:10:20;;;;;;;;;;;;;;;6.56;49.55;99635.44;5030053;28;19913;-66
2022/01/31 12:12:50;;;;;;;;;;;;;;;6.57;48.94;99626.47;5093357;28;19918;-66
2022/01/31 12:23:49;;;;;;;;;;;;;;;6.64;49.39;99582.38;5101189;28;20303;-66
2022/01/31 12:26:33;;;;;;;;;;;;;;;6.61;48.86;99587.97;5098002;28;19915;-66
2022/01/31 12:29:15;;;;;;;;;;;;;;;6.60;49.29;99608.44;5107704;28;20377;-66
2022/01/31 12:31:42;;;;;;;;;;;;;;;6.62;49.18;99597.66;5092507;28;19916;-66
2022/01/31 12:34:10;;;;;;;;;;;;;;;6.61;49.82;99583.47;5092355;28;19922;-66
2022/01/31 12:36:36;;;;;;;;;;;;;;;6.63;49.39;99573.56;5088512;28;20402;-66
2022/01/31 12:39:21;;;;;;;;;;;;;;;6.63;48.95;99565.56;5104908;28;19947;-66
2022/01/31 12:41:46;;;;;;;;;;;;;;;6.61;49.55;99570.16;5089457;28;20384;-67
2022/01/31 12:44:30;;;;;;;;;;;;;;;6.60;49.55;99583.59;5097438;28;20015;-66
2022/01/31 12:47:28;;;;;;;;;;;;;;;6.63;49.52;99592.19;5097312;28;19919;-65
2022/01/31 12:50:12;;;;;;;;;;;;;;;6.62;49.47;99602.97;5091485;28;19919;-66
2022/01/31 12:52:38;;;;;;;;;;;;;;;6.58;49.22;99604.22;5093731;28;19920;-66
2022/01/31 12:55:08;;;;;;;;;;;;;;;6.56;49.58;99601.69;5094594;28;20388;-66
2022/01/31 12:57:34;;;;;;;;;;;;;;;6.55;49.94;99596.47;5097655;28;20011;-66
2022/01/31 12:59:59;;;;;;;;;;;;;;;6.58;49.61;99597.03;5094954;28;19939;-66
2022/01/31 13:02:25;;;;;;;;;;;;;;;6.61;49.76;99591.47;5091342;28;19916;-66
2022/01/31 13:04:50;;;;;;;;;;;;;;;6.62;49.11;99592.31;5092096;28;19916;-66
2022/01/31 13:07:18;;;;;;;;;;;;;;;6.60;49.91;99600.44;5104224;28;20044;-66
2022/01/31 13:09:43;;;;;;;;;;;;;;;6.61;49.53;99595.97;5089852;28;20358;-66
2022/01/31 13:12:12;;;;;;;;;;;;;;;6.61;49.85;99598.63;5097256;28;20011;-67
2022/01/31 13:14:40;;;;;;;;;;;;;;;6.64;49.51;99590.34;5091488;28;20403;-67